Terminal Aerodrome Forecast
Issued by NWS Wilmington, OH

Current Version | Previous Version | Text Only | Print | Product List | Glossary On
Versions: 1 2 3 4 5 6 7 8 9 10 11 12 13 14 15 16 17 18 19 20 21 22 23 24 25 26 27
000 FTUS41 KILN 291100 RRA TAFCVG TAF KCVG 291143Z 2912/3018 18012KT P6SM SCT080 OVC150 TEMPO 2912/2913 -SHRA BKN080 FM291600 21014G24KT P6SM BKN022 OVC150 FM292000 28015G25KT P6SM OVC012 FM300200 30012G20KT P6SM OVC015 FM300900 33012KT P6SM OVC022 FM301600 33011KT P6SM OVC035=

USA.gov is the U.S. government's official web portal to all federal, state and local government web resources and services.